sensor_id;sensor_type;location;lat;lon;timestamp;temperature;humidity
66343;DHT22;53144;51.524;5.080;2022-07-23T00:00:15;16.60;82.57
66343;DHT22;53144;51.524;5.080;2022-07-23T00:02:41;16.49;82.59
66343;DHT22;53144;51.524;5.080;2022-07-23T00:05:06;16.51;82.69
66343;DHT22;53144;51.524;5.080;2022-07-23T00:07:32;16.52;83.00
66343;DHT22;53144;51.524;5.080;2022-07-23T00:09:57;16.48;83.21
66343;DHT22;53144;51.524;5.080;2022-07-23T00:12:23;16.48;83.56
66343;DHT22;53144;51.524;5.080;2022-07-23T00:14:48;16.42;83.57
66343;DHT22;53144;51.524;5.080;2022-07-23T00:17:14;16.41;83.94
66343;DHT22;53144;51.524;5.080;2022-07-23T00:19:39;16.51;83.71
66343;DHT22;53144;51.524;5.080;2022-07-23T00:22:04;16.42;83.57
66343;DHT22;53144;51.524;5.080;2022-07-23T00:24:30;16.53;83.33
66343;DHT22;53144;51.524;5.080;2022-07-23T00:26:55;16.38;84.30
66343;DHT22;53144;51.524;5.080;2022-07-23T00:29:21;16.32;84.60
66343;DHT22;53144;51.524;5.080;2022-07-23T00:31:46;16.22;84.62
66343;DHT22;53144;51.524;5.080;2022-07-23T00:34:11;16.15;85.12
66343;DHT22;53144;51.524;5.080;2022-07-23T00:36:37;16.11;85.92
66343;DHT22;53144;51.524;5.080;2022-07-23T00:39:02;16.05;85.80
66343;DHT22;53144;51.524;5.080;2022-07-23T00:41:27;15.97;85.66
66343;DHT22;53144;51.524;5.080;2022-07-23T00:43:53;15.95;85.64
66343;DHT22;53144;51.524;5.080;2022-07-23T00:46:21;15.87;86.48
66343;DHT22;53144;51.524;5.080;2022-07-23T00:48:46;15.80;86.95
66343;DHT22;53144;51.524;5.080;2022-07-23T00:51:12;15.80;86.72
66343;DHT22;53144;51.524;5.080;2022-07-23T00:53:37;15.83;86.28
66343;DHT22;53144;51.524;5.080;2022-07-23T00:56:03;15.75;86.70
66343;DHT22;53144;51.524;5.080;2022-07-23T00:58:29;15.71;86.59
66343;DHT22;53144;51.524;5.080;2022-07-23T01:00:55;15.68;87.09
66343;DHT22;53144;51.524;5.080;2022-07-23T01:03:21;15.68;86.53
66343;DHT22;53144;51.524;5.080;2022-07-23T01:05:47;15.63;86.67
66343;DHT22;53144;51.524;5.080;2022-07-23T01:08:12;15.66;86.77
66343;DHT22;53144;51.524;5.080;2022-07-23T01:10:38;15.68;86.59
66343;DHT22;53144;51.524;5.080;2022-07-23T01:13:05;15.61;86.90
66343;DHT22;53144;51.524;5.080;2022-07-23T01:15:33;15.58;86.93
66343;DHT22;53144;51.524;5.080;2022-07-23T01:17:58;15.56;86.85
66343;DHT22;53144;51.524;5.080;2022-07-23T01:20:24;15.47;87.08
66343;DHT22;53144;51.524;5.080;2022-07-23T01:22:50;15.47;86.87
66343;DHT22;53144;51.524;5.080;2022-07-23T01:25:16;15.47;86.54
66343;DHT22;53144;51.524;5.080;2022-07-23T01:27:42;15.43;86.42
66343;DHT22;53144;51.524;5.080;2022-07-23T01:30:08;15.42;86.74
66343;DHT22;53144;51.524;5.080;2022-07-23T01:32:33;15.39;87.38
66343;DHT22;53144;51.524;5.080;2022-07-23T01:34:58;15.35;87.05
66343;DHT22;53144;51.524;5.080;2022-07-23T01:37:24;15.37;87.47
66343;DHT22;53144;51.524;5.080;2022-07-23T01:39:49;15.36;87.77
66343;DHT22;53144;51.524;5.080;2022-07-23T01:42:15;15.29;88.10
66343;DHT22;53144;51.524;5.080;2022-07-23T01:44:40;15.32;87.46
66343;DHT22;53144;51.524;5.080;2022-07-23T01:47:06;15.15;88.28
66343;DHT22;53144;51.524;5.080;2022-07-23T01:49:31;15.16;88.14
66343;DHT22;53144;51.524;5.080;2022-07-23T01:51:57;15.03;87.89
66343;DHT22;53144;51.524;5.080;2022-07-23T01:54:30;14.87;88.56
66343;DHT22;53144;51.524;5.080;2022-07-23T01:56:56;14.74;89.11
66343;DHT22;53144;51.524;5.080;2022-07-23T01:59:22;14.67;89.76
66343;DHT22;53144;51.524;5.080;2022-07-23T02:01:47;14.61;90.42
66343;DHT22;53144;51.524;5.080;2022-07-23T02:04:13;14.56;90.32
66343;DHT22;53144;51.524;5.080;2022-07-23T02:06:39;14.51;90.54
66343;DHT22;53144;51.524;5.080;2022-07-23T02:09:04;14.44;91.01
66343;DHT22;53144;51.524;5.080;2022-07-23T02:11:29;14.33;91.28
66343;DHT22;53144;51.524;5.080;2022-07-23T02:13:55;14.31;90.99
66343;DHT22;53144;51.524;5.080;2022-07-23T02:16:20;14.34;91.33
66343;DHT22;53144;51.524;5.080;2022-07-23T02:18:46;14.23;91.73
66343;DHT22;53144;51.524;5.080;2022-07-23T02:21:12;14.13;91.85
66343;DHT22;53144;51.524;5.080;2022-07-23T02:23:37;14.14;91.67
66343;DHT22;53144;51.524;5.080;2022-07-23T02:26:03;14.16;91.75
66343;DHT22;53144;51.524;5.080;2022-07-23T02:28:28;14.17;91.89
66343;DHT22;53144;51.524;5.080;2022-07-23T02:30:53;14.12;92.00
66343;DHT22;53144;51.524;5.080;2022-07-23T02:33:19;14.08;91.94
66343;DHT22;53144;51.524;5.080;2022-07-23T02:35:44;14.08;92.12
66343;DHT22;53144;51.524;5.080;2022-07-23T02:38:09;14.00;92.70
66343;DHT22;53144;51.524;5.080;2022-07-23T02:40:34;14.05;92.58
66343;DHT22;53144;51.524;5.080;2022-07-23T02:43:00;14.06;92.33
66343;DHT22;53144;51.524;5.080;2022-07-23T02:45:25;14.08;92.24
66343;DHT22;53144;51.524;5.080;2022-07-23T02:47:51;14.09;91.80
66343;DHT22;53144;51.524;5.080;2022-07-23T02:50:16;14.05;92.35
66343;DHT22;53144;51.524;5.080;2022-07-23T02:52:41;14.02;92.69
66343;DHT22;53144;51.524;5.080;2022-07-23T02:55:07;14.02;92.34
66343;DHT22;53144;51.524;5.080;2022-07-23T02:57:33;13.99;92.15
66343;DHT22;53144;51.524;5.080;2022-07-23T02:59:58;13.95;92.02
66343;DHT22;53144;51.524;5.080;2022-07-23T03:02:24;13.98;92.55
66343;DHT22;53144;51.524;5.080;2022-07-23T03:04:49;13.98;92.39
66343;DHT22;53144;51.524;5.080;2022-07-23T03:07:16;13.96;92.34
66343;DHT22;53144;51.524;5.080;2022-07-23T03:09:42;14.00;92.35
66343;DHT22;53144;51.524;5.080;2022-07-23T03:12:07;13.92;92.05
66343;DHT22;53144;51.524;5.080;2022-07-23T03:14:32;13.93;91.82
66343;DHT22;53144;51.524;5.080;2022-07-23T03:16:58;13.89;91.00
66343;DHT22;53144;51.524;5.080;2022-07-23T03:19:25;13.86;91.71
66343;DHT22;53144;51.524;5.080;2022-07-23T03:21:50;13.79;91.64
66343;DHT22;53144;51.524;5.080;2022-07-23T03:24:15;13.75;91.97
66343;DHT22;53144;51.524;5.080;2022-07-23T03:26:43;13.72;92.31
66343;DHT22;53144;51.524;5.080;2022-07-23T03:29:08;13.71;92.53
66343;DHT22;53144;51.524;5.080;2022-07-23T03:31:34;13.63;92.69
66343;DHT22;53144;51.524;5.080;2022-07-23T03:33:59;13.65;92.57
66343;DHT22;53144;51.524;5.080;2022-07-23T03:36:25;13.61;92.63
66343;DHT22;53144;51.524;5.080;2022-07-23T03:38:51;13.59;92.38
66343;DHT22;53144;51.524;5.080;2022-07-23T03:41:17;13.55;92.49
66343;DHT22;53144;51.524;5.080;2022-07-23T03:43:42;13.58;92.39
66343;DHT22;53144;51.524;5.080;2022-07-23T03:46:08;13.65;92.01
66343;DHT22;53144;51.524;5.080;2022-07-23T03:48:33;13.57;92.24
66343;DHT22;53144;51.524;5.080;2022-07-23T03:50:58;13.38;91.97
66343;DHT22;53144;51.524;5.080;2022-07-23T03:53:24;13.35;91.99
66343;DHT22;53144;51.524;5.080;2022-07-23T03:55:49;13.24;92.39
66343;DHT22;53144;51.524;5.080;2022-07-23T03:58:14;13.17;93.16
66343;DHT22;53144;51.524;5.080;2022-07-23T04:00:40;13.18;93.13
66343;DHT22;53144;51.524;5.080;2022-07-23T04:03:05;13.25;93.39
66343;DHT22;53144;51.524;5.080;2022-07-23T04:05:30;13.27;93.38
66343;DHT22;53144;51.524;5.080;2022-07-23T04:07:56;13.32;93.27
66343;DHT22;53144;51.524;5.080;2022-07-23T04:10:21;13.37;93.48
66343;DHT22;53144;51.524;5.080;2022-07-23T04:12:46;13.37;93.45
66343;DHT22;53144;51.524;5.080;2022-07-23T04:15:12;13.40;93.20
66343;DHT22;53144;51.524;5.080;2022-07-23T04:17:37;13.40;93.11
66343;DHT22;53144;51.524;5.080;2022-07-23T04:20:03;13.48;93.17
66343;DHT22;53144;51.524;5.080;2022-07-23T04:22:28;13.44;93.44
66343;DHT22;53144;51.524;5.080;2022-07-23T04:24:53;13.41;93.25
66343;DHT22;53144;51.524;5.080;2022-07-23T04:27:19;13.44;93.22
66343;DHT22;53144;51.524;5.080;2022-07-23T04:29:44;13.42;93.24
66343;DHT22;53144;51.524;5.080;2022-07-23T04:32:09;13.40;93.32
66343;DHT22;53144;51.524;5.080;2022-07-23T04:34:35;13.45;93.35
66343;DHT22;53144;51.524;5.080;2022-07-23T04:37:00;13.42;93.19
66343;DHT22;53144;51.524;5.080;2022-07-23T04:39:25;13.44;93.27
66343;DHT22;53144;51.524;5.080;2022-07-23T04:41:51;13.45;93.44
66343;DHT22;53144;51.524;5.080;2022-07-23T04:44:16;13.47;93.30
66343;DHT22;53144;51.524;5.080;2022-07-23T04:46:41;13.51;93.37
66343;DHT22;53144;51.524;5.080;2022-07-23T04:49:07;13.59;93.26
66343;DHT22;53144;51.524;5.080;2022-07-23T04:51:32;13.58;93.00
66343;DHT22;53144;51.524;5.080;2022-07-23T04:53:57;13.68;92.06
66343;DHT22;53144;51.524;5.080;2022-07-23T04:56:23;13.69;91.33
66343;DHT22;53144;51.524;5.080;2022-07-23T04:58:48;13.71;91.03
66343;DHT22;53144;51.524;5.080;2022-07-23T05:01:14;13.69;90.83
66343;DHT22;53144;51.524;5.080;2022-07-23T05:03:39;13.66;90.92
66343;DHT22;53144;51.524;5.080;2022-07-23T05:06:04;13.59;91.59
66343;DHT22;53144;51.524;5.080;2022-07-23T05:08:30;13.66;92.09
66343;DHT22;53144;51.524;5.080;2022-07-23T05:10:55;13.78;91.88
66343;DHT22;53144;51.524;5.080;2022-07-23T05:13:21;13.85;92.10
66343;DHT22;53144;51.524;5.080;2022-07-23T05:15:46;13.96;91.80
66343;DHT22;53144;51.524;5.080;2022-07-23T05:18:12;14.06;91.60
66343;DHT22;53144;51.524;5.080;2022-07-23T05:20:37;14.14;91.67
66343;DHT22;53144;51.524;5.080;2022-07-23T05:23:03;14.34;91.61
66343;DHT22;53144;51.524;5.080;2022-07-23T05:25:28;14.57;91.18
66343;DHT22;53144;51.524;5.080;2022-07-23T05:27:53;14.61;91.03
66343;DHT22;53144;51.524;5.080;2022-07-23T05:30:19;14.58;91.26
66343;DHT22;53144;51.524;5.080;2022-07-23T05:32:45;14.57;91.85
66343;DHT22;53144;51.524;5.080;2022-07-23T05:35:10;14.63;91.64
66343;DHT22;53144;51.524;5.080;2022-07-23T05:37:36;14.72;91.96
66343;DHT22;53144;51.524;5.080;2022-07-23T05:40:06;14.84;91.65
66343;DHT22;53144;51.524;5.080;2022-07-23T05:42:33;14.98;91.81
66343;DHT22;53144;51.524;5.080;2022-07-23T05:44:58;15.03;92.04
66343;DHT22;53144;51.524;5.080;2022-07-23T05:47:24;15.06;92.14
66343;DHT22;53144;51.524;5.080;2022-07-23T05:49:49;15.20;92.01
66343;DHT22;53144;51.524;5.080;2022-07-23T05:52:15;15.27;91.75
66343;DHT22;53144;51.524;5.080;2022-07-23T05:54:40;15.40;91.73
66343;DHT22;53144;51.524;5.080;2022-07-23T05:57:06;15.50;91.74
66343;DHT22;53144;51.524;5.080;2022-07-23T05:59:32;15.61;90.64
66343;DHT22;53144;51.524;5.080;2022-07-23T06:01:57;15.74;91.08
66343;DHT22;53144;51.524;5.080;2022-07-23T06:04:23;15.84;90.18
66343;DHT22;53144;51.524;5.080;2022-07-23T06:06:48;15.91;89.18
66343;DHT22;53144;51.524;5.080;2022-07-23T06:09:13;15.98;89.07
66343;DHT22;53144;51.524;5.080;2022-07-23T06:11:40;16.09;88.62
66343;DHT22;53144;51.524;5.080;2022-07-23T06:14:05;16.21;88.80
66343;DHT22;53144;51.524;5.080;2022-07-23T06:16:31;16.28;87.64
66343;DHT22;53144;51.524;5.080;2022-07-23T06:18:56;16.41;84.37
66343;DHT22;53144;51.524;5.080;2022-07-23T06:21:22;16.63;84.77
66343;DHT22;53144;51.524;5.080;2022-07-23T06:23:47;16.67;84.73
66343;DHT22;53144;51.524;5.080;2022-07-23T06:26:13;16.67;84.42
66343;DHT22;53144;51.524;5.080;2022-07-23T06:28:38;16.81;84.15
66343;DHT22;53144;51.524;5.080;2022-07-23T06:31:03;16.91;83.78
66343;DHT22;53144;51.524;5.080;2022-07-23T06:33:29;16.94;84.19
66343;DHT22;53144;51.524;5.080;2022-07-23T06:35:54;16.99;81.99
66343;DHT22;53144;51.524;5.080;2022-07-23T06:38:19;16.93;81.99
66343;DHT22;53144;51.524;5.080;2022-07-23T06:40:45;16.94;81.53
66343;DHT22;53144;51.524;5.080;2022-07-23T06:43:10;17.04;83.05
66343;DHT22;53144;51.524;5.080;2022-07-23T06:45:36;17.17;82.63
66343;DHT22;53144;51.524;5.080;2022-07-23T06:48:01;17.28;82.89
66343;DHT22;53144;51.524;5.080;2022-07-23T06:50:28;17.32;81.61
66343;DHT22;53144;51.524;5.080;2022-07-23T06:52:53;17.35;80.17
66343;DHT22;53144;51.524;5.080;2022-07-23T06:55:19;17.41;80.70
66343;DHT22;53144;51.524;5.080;2022-07-23T06:57:44;17.53;81.29
66343;DHT22;53144;51.524;5.080;2022-07-23T07:00:10;17.68;79.71
66343;DHT22;53144;51.524;5.080;2022-07-23T07:02:36;17.68;81.67
66343;DHT22;53144;51.524;5.080;2022-07-23T07:05:02;17.68;79.61
66343;DHT22;53144;51.524;5.080;2022-07-23T07:07:27;17.85;79.10
66343;DHT22;53144;51.524;5.080;2022-07-23T07:09:53;18.00;79.29
66343;DHT22;53144;51.524;5.080;2022-07-23T07:12:18;18.09;78.75
66343;DHT22;53144;51.524;5.080;2022-07-23T07:14:44;18.23;78.45
66343;DHT22;53144;51.524;5.080;2022-07-23T07:17:09;18.26;78.41
66343;DHT22;53144;51.524;5.080;2022-07-23T07:19:36;18.00;78.09
66343;DHT22;53144;51.524;5.080;2022-07-23T07:22:02;18.02;79.09
66343;DHT22;53144;51.524;5.080;2022-07-23T07:24:27;18.33;77.22
66343;DHT22;53144;51.524;5.080;2022-07-23T07:26:52;18.18;77.96
66343;DHT22;53144;51.524;5.080;2022-07-23T07:29:18;18.23;77.91
66343;DHT22;53144;51.524;5.080;2022-07-23T07:31:43;18.40;76.13
66343;DHT22;53144;51.524;5.080;2022-07-23T07:34:09;18.34;76.92
66343;DHT22;53144;51.524;5.080;2022-07-23T07:36:34;18.38;76.32
66343;DHT22;53144;51.524;5.080;2022-07-23T07:39:05;18.21;76.66
66343;DHT22;53144;51.524;5.080;2022-07-23T07:41:32;18.44;77.78
66343;DHT22;53144;51.524;5.080;2022-07-23T07:43:57;18.64;76.25
66343;DHT22;53144;51.524;5.080;2022-07-23T07:46:22;18.34;75.14
66343;DHT22;53144;51.524;5.080;2022-07-23T07:48:52;18.62;75.04
66343;DHT22;53144;51.524;5.080;2022-07-23T07:51:17;18.78;74.18
66343;DHT22;53144;51.524;5.080;2022-07-23T07:53:42;18.75;73.34
66343;DHT22;53144;51.524;5.080;2022-07-23T07:56:08;18.85;74.95
66343;DHT22;53144;51.524;5.080;2022-07-23T07:58:33;18.69;71.89
66343;DHT22;53144;51.524;5.080;2022-07-23T08:00:59;18.94;73.69
66343;DHT22;53144;51.524;5.080;2022-07-23T08:03:25;18.87;72.62
66343;DHT22;53144;51.524;5.080;2022-07-23T08:05:51;19.18;74.06
66343;DHT22;53144;51.524;5.080;2022-07-23T08:08:16;19.19;72.70
66343;DHT22;53144;51.524;5.080;2022-07-23T08:10:42;19.15;72.97
66343;DHT22;53144;51.524;5.080;2022-07-23T08:13:12;19.10;72.91
66343;DHT22;53144;51.524;5.080;2022-07-23T08:15:38;19.19;73.15
66343;DHT22;53144;51.524;5.080;2022-07-23T08:18:04;19.36;72.16
66343;DHT22;53144;51.524;5.080;2022-07-23T08:20:29;19.47;71.01
66343;DHT22;53144;51.524;5.080;2022-07-23T08:23:04;19.64;72.03
66343;DHT22;53144;51.524;5.080;2022-07-23T08:25:36;19.74;71.55
66343;DHT22;53144;51.524;5.080;2022-07-23T08:28:03;19.75;72.06
66343;DHT22;53144;51.524;5.080;2022-07-23T08:30:30;19.85;70.66
66343;DHT22;53144;51.524;5.080;2022-07-23T08:33:04;19.85;72.60
66343;DHT22;53144;51.524;5.080;2022-07-23T08:35:33;19.97;72.35
66343;DHT22;53144;51.524;5.080;2022-07-23T08:38:01;19.97;70.08
66343;DHT22;53144;51.524;5.080;2022-07-23T08:40:29;20.08;69.67
66343;DHT22;53144;51.524;5.080;2022-07-23T08:42:56;20.25;68.53
66343;DHT22;53144;51.524;5.080;2022-07-23T08:45:23;20.21;68.66
66343;DHT22;53144;51.524;5.080;2022-07-23T08:47:57;20.16;70.55
66343;DHT22;53144;51.524;5.080;2022-07-23T08:50:25;20.33;69.76
66343;DHT22;53144;51.524;5.080;2022-07-23T08:52:52;20.53;69.52
66343;DHT22;53144;51.524;5.080;2022-07-23T08:55:21;20.35;68.25
66343;DHT22;53144;51.524;5.080;2022-07-23T08:57:52;20.29;69.61
66343;DHT22;53144;51.524;5.080;2022-07-23T09:00:19;20.28;68.57
66343;DHT22;53144;51.524;5.080;2022-07-23T09:02:45;20.69;68.78
66343;DHT22;53144;51.524;5.080;2022-07-23T09:05:12;20.77;67.10
66343;DHT22;53144;51.524;5.080;2022-07-23T09:13:38;21.10;66.49
66343;DHT22;53144;51.524;5.080;2022-07-23T09:21:17;21.11;65.30
66343;DHT22;53144;51.524;5.080;2022-07-23T09:23:45;21.25;65.14
66343;DHT22;53144;51.524;5.080;2022-07-23T09:26:22;21.25;65.06
66343;DHT22;53144;51.524;5.080;2022-07-23T09:34:30;21.48;64.56
66343;DHT22;53144;51.524;5.080;2022-07-23T09:37:09;21.65;63.43
66343;DHT22;53144;51.524;5.080;2022-07-23T09:39:35;21.76;64.18
66343;DHT22;53144;51.524;5.080;2022-07-23T09:42:16;21.75;65.07
66343;DHT22;53144;51.524;5.080;2022-07-23T09:44:44;21.93;62.62
66343;DHT22;53144;51.524;5.080;2022-07-23T09:47:09;21.89;63.34
66343;DHT22;53144;51.524;5.080;2022-07-23T09:49:35;21.97;60.29
66343;DHT22;53144;51.524;5.080;2022-07-23T09:52:01;21.94;62.20
66343;DHT22;53144;51.524;5.080;2022-07-23T09:54:35;21.96;63.25
66343;DHT22;53144;51.524;5.080;2022-07-23T09:57:10;21.93;63.74
66343;DHT22;53144;51.524;5.080;2022-07-23T09:59:40;21.94;62.30
66343;DHT22;53144;51.524;5.080;2022-07-23T10:02:08;22.24;61.75
66343;DHT22;53144;51.524;5.080;2022-07-23T10:04:34;22.43;62.04
66343;DHT22;53144;51.524;5.080;2022-07-23T10:07:03;22.37;61.13
66343;DHT22;53144;51.524;5.080;2022-07-23T10:09:39;22.81;58.68
66343;DHT22;53144;51.524;5.080;2022-07-23T10:12:10;22.85;58.66
66343;DHT22;53144;51.524;5.080;2022-07-23T10:14:54;22.89;58.45
66343;DHT22;53144;51.524;5.080;2022-07-23T10:17:21;22.96;59.46
66343;DHT22;53144;51.524;5.080;2022-07-23T10:19:47;23.37;57.55
66343;DHT22;53144;51.524;5.080;2022-07-23T10:22:19;23.49;56.55
66343;DHT22;53144;51.524;5.080;2022-07-23T10:32:56;24.14;54.01
66343;DHT22;53144;51.524;5.080;2022-07-23T10:38:54;25.66;52.91
66343;DHT22;53144;51.524;5.080;2022-07-23T10:44:20;26.17;54.15
66343;DHT22;53144;51.524;5.080;2022-07-23T10:47:02;27.13;48.66
66343;DHT22;53144;51.524;5.080;2022-07-23T10:50:26;27.25;47.14
66343;DHT22;53144;51.524;5.080;2022-07-23T10:57:57;27.53;47.14
66343;DHT22;53144;51.524;5.080;2022-07-23T11:00:24;26.62;50.48
66343;DHT22;53144;51.524;5.080;2022-07-23T11:02:52;27.29;48.65
66343;DHT22;53144;51.524;5.080;2022-07-23T11:05:45;27.80;45.99
66343;DHT22;53144;51.524;5.080;2022-07-23T11:08:14;27.51;44.49
66343;DHT22;53144;51.524;5.080;2022-07-23T11:10:53;27.90;44.10
66343;DHT22;53144;51.524;5.080;2022-07-23T11:16:21;29.11;42.53
66343;DHT22;53144;51.524;5.080;2022-07-23T11:32:04;28.11;44.27
66343;DHT22;53144;51.524;5.080;2022-07-23T11:34:31;29.61;41.37
66343;DHT22;53144;51.524;5.080;2022-07-23T11:36:57;28.96;45.04
66343;DHT22;53144;51.524;5.080;2022-07-23T11:39:26;29.27;42.15
66343;DHT22;53144;51.524;5.080;2022-07-23T11:41:52;27.74;44.97
66343;DHT22;53144;51.524;5.080;2022-07-23T11:44:30;26.50;48.93
66343;DHT22;53144;51.524;5.080;2022-07-23T11:47:14;25.93;47.90
66343;DHT22;53144;51.524;5.080;2022-07-23T11:49:52;26.51;46.15
66343;DHT22;53144;51.524;5.080;2022-07-23T11:52:17;27.73;49.78
66343;DHT22;53144;51.524;5.080;2022-07-23T11:55:06;27.63;44.85
66343;DHT22;53144;51.524;5.080;2022-07-23T11:57:37;28.90;44.47
66343;DHT22;53144;51.524;5.080;2022-07-23T12:00:07;29.06;44.24
66343;DHT22;53144;51.524;5.080;2022-07-23T12:02:34;29.07;45.16
66343;DHT22;53144;51.524;5.080;2022-07-23T12:04:59;29.08;44.32
66343;DHT22;53144;51.524;5.080;2022-07-23T12:07:34;29.58;43.22
66343;DHT22;53144;51.524;5.080;2022-07-23T12:12:49;30.27;39.83
66343;DHT22;53144;51.524;5.080;2022-07-23T12:15:16;29.76;40.37
66343;DHT22;53144;51.524;5.080;2022-07-23T12:17:44;29.34;46.75
66343;DHT22;53144;51.524;5.080;2022-07-23T12:20:15;30.29;40.44
66343;DHT22;53144;51.524;5.080;2022-07-23T12:22:44;29.21;45.20
66343;DHT22;53144;51.524;5.080;2022-07-23T12:25:13;28.87;44.15
66343;DHT22;53144;51.524;5.080;2022-07-23T12:27:39;27.71;45.69
66343;DHT22;53144;51.524;5.080;2022-07-23T12:30:21;29.10;47.56
66343;DHT22;53144;51.524;5.080;2022-07-23T12:32:50;28.63;44.19
66343;DHT22;53144;51.524;5.080;2022-07-23T12:35:16;29.65;40.02
66343;DHT22;53144;51.524;5.080;2022-07-23T12:37:44;28.17;41.43
66343;DHT22;53144;51.524;5.080;2022-07-23T12:40:36;27.25;44.84
66343;DHT22;53144;51.524;5.080;2022-07-23T12:43:08;27.43;44.61
66343;DHT22;53144;51.524;5.080;2022-07-23T12:48:17;28.48;42.55
66343;DHT22;53144;51.524;5.080;2022-07-23T12:50:50;28.56;42.36
66343;DHT22;53144;51.524;5.080;2022-07-23T12:53:23;28.56;45.52
66343;DHT22;53144;51.524;5.080;2022-07-23T12:55:50;28.49;45.80
66343;DHT22;53144;51.524;5.080;2022-07-23T12:58:18;28.34;40.99
66343;DHT22;53144;51.524;5.080;2022-07-23T13:01:02;28.28;44.80
66343;DHT22;53144;51.524;5.080;2022-07-23T13:03:40;28.05;42.81
66343;DHT22;53144;51.524;5.080;2022-07-23T13:06:10;28.36;41.64
66343;DHT22;53144;51.524;5.080;2022-07-23T13:08:38;27.86;42.97
66343;DHT22;53144;51.524;5.080;2022-07-23T13:11:05;27.59;42.31
66343;DHT22;53144;51.524;5.080;2022-07-23T13:13:33;27.86;41.11
66343;DHT22;53144;51.524;5.080;2022-07-23T13:15:59;28.51;41.32
66343;DHT22;53144;51.524;5.080;2022-07-23T13:18:26;27.23;41.45
66343;DHT22;53144;51.524;5.080;2022-07-23T13:20:52;28.01;42.82
66343;DHT22;53144;51.524;5.080;2022-07-23T13:23:18;28.94;40.78
66343;DHT22;53144;51.524;5.080;2022-07-23T13:25:44;28.70;41.93
66343;DHT22;53144;51.524;5.080;2022-07-23T13:28:09;28.24;43.28
66343;DHT22;53144;51.524;5.080;2022-07-23T13:30:35;29.18;41.97
66343;DHT22;53144;51.524;5.080;2022-07-23T13:33:02;29.37;43.11
66343;DHT22;53144;51.524;5.080;2022-07-23T13:35:28;30.60;37.63
66343;DHT22;53144;51.524;5.080;2022-07-23T13:37:54;30.60;37.02
66343;DHT22;53144;51.524;5.080;2022-07-23T13:40:20;30.75;37.25
66343;DHT22;53144;51.524;5.080;2022-07-23T13:42:46;30.50;42.02
66343;DHT22;53144;51.524;5.080;2022-07-23T13:45:11;28.12;42.74
66343;DHT22;53144;51.524;5.080;2022-07-23T13:47:37;28.14;42.91
66343;DHT22;53144;51.524;5.080;2022-07-23T13:50:03;28.02;41.59
66343;DHT22;53144;51.524;5.080;2022-07-23T13:52:28;29.00;40.91
66343;DHT22;53144;51.524;5.080;2022-07-23T13:54:54;29.42;40.84
66343;DHT22;53144;51.524;5.080;2022-07-23T13:57:19;28.70;42.88
66343;DHT22;53144;51.524;5.080;2022-07-23T13:59:45;28.22;42.96
66343;DHT22;53144;51.524;5.080;2022-07-23T14:02:13;28.29;45.20
66343;DHT22;53144;51.524;5.080;2022-07-23T14:04:40;28.48;44.95
66343;DHT22;53144;51.524;5.080;2022-07-23T14:07:05;27.29;46.03
66343;DHT22;53144;51.524;5.080;2022-07-23T14:09:31;26.51;48.62
66343;DHT22;53144;51.524;5.080;2022-07-23T14:11:59;25.79;49.28
66343;DHT22;53144;51.524;5.080;2022-07-23T14:14:24;25.38;47.96
66343;DHT22;53144;51.524;5.080;2022-07-23T14:16:49;25.73;49.71
66343;DHT22;53144;51.524;5.080;2022-07-23T14:19:15;25.96;49.53
66343;DHT22;53144;51.524;5.080;2022-07-23T14:21:40;26.43;45.58
66343;DHT22;53144;51.524;5.080;2022-07-23T14:24:06;26.13;48.76
66343;DHT22;53144;51.524;5.080;2022-07-23T14:26:31;25.39;49.61
66343;DHT22;53144;51.524;5.080;2022-07-23T14:28:57;25.63;52.22
66343;DHT22;53144;51.524;5.080;2022-07-23T14:31:22;25.61;49.64
66343;DHT22;53144;51.524;5.080;2022-07-23T14:33:48;26.21;47.96
66343;DHT22;53144;51.524;5.080;2022-07-23T14:36:13;26.51;46.05
66343;DHT22;53144;51.524;5.080;2022-07-23T14:38:39;26.65;46.82
66343;DHT22;53144;51.524;5.080;2022-07-23T14:41:04;26.58;48.16
66343;DHT22;53144;51.524;5.080;2022-07-23T14:43:32;26.48;45.86
66343;DHT22;53144;51.524;5.080;2022-07-23T14:45:58;26.00;47.65
66343;DHT22;53144;51.524;5.080;2022-07-23T14:48:23;25.69;50.05
66343;DHT22;53144;51.524;5.080;2022-07-23T14:50:48;25.71;52.14
66343;DHT22;53144;51.524;5.080;2022-07-23T14:53:14;25.51;49.87
66343;DHT22;53144;51.524;5.080;2022-07-23T14:55:39;25.82;52.94
66343;DHT22;53144;51.524;5.080;2022-07-23T14:58:04;25.89;50.31
66343;DHT22;53144;51.524;5.080;2022-07-23T15:00:30;25.44;51.92
66343;DHT22;53144;51.524;5.080;2022-07-23T15:02:55;25.51;51.15
66343;DHT22;53144;51.524;5.080;2022-07-23T15:05:21;25.69;51.40
66343;DHT22;53144;51.524;5.080;2022-07-23T15:07:47;25.59;50.81
66343;DHT22;53144;51.524;5.080;2022-07-23T15:10:13;25.08;50.84
66343;DHT22;53144;51.524;5.080;2022-07-23T15:12:38;25.18;51.09
66343;DHT22;53144;51.524;5.080;2022-07-23T15:15:04;25.68;50.60
66343;DHT22;53144;51.524;5.080;2022-07-23T15:17:30;26.03;49.34
66343;DHT22;53144;51.524;5.080;2022-07-23T15:19:55;25.57;53.93
66343;DHT22;53144;51.524;5.080;2022-07-23T15:22:21;25.90;50.11
66343;DHT22;53144;51.524;5.080;2022-07-23T15:24:47;26.00;47.53
66343;DHT22;53144;51.524;5.080;2022-07-23T15:27:12;26.04;48.65
66343;DHT22;53144;51.524;5.080;2022-07-23T15:29:37;25.99;49.97
66343;DHT22;53144;51.524;5.080;2022-07-23T15:32:03;25.92;51.16
66343;DHT22;53144;51.524;5.080;2022-07-23T15:34:28;25.59;51.76
66343;DHT22;53144;51.524;5.080;2022-07-23T15:36:54;25.57;50.00
66343;DHT22;53144;51.524;5.080;2022-07-23T15:39:19;25.34;50.12
66343;DHT22;53144;51.524;5.080;2022-07-23T15:41:45;25.72;48.26
66343;DHT22;53144;51.524;5.080;2022-07-23T15:44:10;25.54;49.60
66343;DHT22;53144;51.524;5.080;2022-07-23T15:46:36;25.82;51.46
66343;DHT22;53144;51.524;5.080;2022-07-23T15:49:02;25.90;48.86
66343;DHT22;53144;51.524;5.080;2022-07-23T15:51:28;26.04;48.36
66343;DHT22;53144;51.524;5.080;2022-07-23T15:53:54;26.06;48.74
66343;DHT22;53144;51.524;5.080;2022-07-23T15:56:19;25.86;50.64
66343;DHT22;53144;51.524;5.080;2022-07-23T15:58:45;25.58;48.19
66343;DHT22;53144;51.524;5.080;2022-07-23T16:01:11;25.76;51.03
66343;DHT22;53144;51.524;5.080;2022-07-23T16:03:36;25.75;49.59
66343;DHT22;53144;51.524;5.080;2022-07-23T16:06:03;25.75;48.03
66343;DHT22;53144;51.524;5.080;2022-07-23T16:08:29;25.52;50.27
66343;DHT22;53144;51.524;5.080;2022-07-23T16:10:54;25.63;50.89
66343;DHT22;53144;51.524;5.080;2022-07-23T16:13:22;25.72;50.54
66343;DHT22;53144;51.524;5.080;2022-07-23T16:15:48;25.46;50.23
66343;DHT22;53144;51.524;5.080;2022-07-23T16:18:13;25.41;48.97
66343;DHT22;53144;51.524;5.080;2022-07-23T16:20:39;25.59;48.68
66343;DHT22;53144;51.524;5.080;2022-07-23T16:23:05;25.42;50.17
66343;DHT22;53144;51.524;5.080;2022-07-23T16:25:31;25.31;49.63